Time;durP1;ratioP1;P1;durP2;ratioP2;P2;SDS_P1;SDS_P2;PMS_P1;PMS_P2;Temp;Humidity;BMP_temperature;BMP_pressure;BME280_temperature;BME280_humidity;BME280_pressure;Samples;Min_cycle;Max_cycle;Signal;HPM_P1;HPM_P2
2021/11/08 00:02:05;;;;;;;44.83;21.77;;;;;;;10.67;100.00;94917.97;10397974;28;20037;-82
2021/11/08 00:07:05;;;;;;;41.22;18.73;;;;;;;10.70;100.00;94908.56;10382608;28;20025;-83
2021/11/08 00:12:07;;;;;;;42.10;17.58;;;;;;;10.69;100.00;94907.78;10401496;28;20112;-81
2021/11/08 00:22:17;;;;;;;41.67;16.88;;;;;;;10.76;100.00;94904.81;10403117;28;20083;-82
2021/11/08 00:27:19;;;;;;;31.33;16.40;;;;;;;10.58;100.00;94900.78;10389605;28;20057;-82
2021/11/08 00:32:19;;;;;;;36.72;17.75;;;;;;;10.57;100.00;94891.13;10408991;28;20658;-81
2021/11/08 00:37:20;;;;;;;40.43;20.00;;;;;;;10.54;100.00;94892.44;10409734;28;20022;-82
2021/11/08 00:42:20;;;;;;;43.10;23.27;;;;;;;10.55;100.00;94888.69;10391999;28;20659;-82
2021/11/08 00:47:21;;;;;;;40.80;22.17;;;;;;;10.43;100.00;94904.28;10391178;28;20037;-82
2021/11/08 00:52:21;;;;;;;40.47;31.40;;;;;;;10.46;100.00;94884.13;10406402;28;20111;-81
2021/11/08 00:57:25;;;;;;;44.08;39.38;;;;;;;10.47;100.00;94880.38;10406279;28;20837;-81
2021/11/08 01:02:27;;;;;;;36.13;15.95;;;;;;;10.39;100.00;94863.69;10406209;28;20213;-82
2021/11/08 01:07:29;;;;;;;34.65;16.83;;;;;;;10.31;100.00;94858.03;10387638;28;20124;-81
2021/11/08 01:12:29;;;;;;;37.75;15.32;;;;;;;10.25;100.00;94854.53;10388114;28;20499;-83
2021/11/08 01:17:30;;;;;;;31.25;16.33;;;;;;;10.21;100.00;94858.81;10387845;28;20031;-82
2021/11/08 01:22:32;;;;;;;26.13;14.25;;;;;;;10.19;100.00;94855.63;10404210;28;20041;-82
2021/11/08 01:27:41;;;;;;;30.88;14.50;;;;;;;10.09;100.00;94851.84;10385849;28;20438;-81
2021/11/08 01:32:59;;;;;;;33.10;15.98;;;;;;;10.21;100.00;94846.22;10401961;28;20435;-83
2021/11/08 01:38:08;;;;;;;32.65;16.90;;;;;;;10.27;100.00;94837.06;10402760;28;20033;-81
2021/11/08 01:43:11;;;;;;;31.98;16.67;;;;;;;10.26;100.00;94818.53;10386388;28;20112;-82
2021/11/08 01:48:22;;;;;;;29.80;13.07;;;;;;;10.26;100.00;94816.66;10403738;28;20034;-81
2021/11/08 01:53:23;;;;;;;28.48;13.93;;;;;;;10.34;100.00;94818.03;10385671;28;20087;-81
2021/11/08 01:58:27;;;;;;;31.52;14.85;;;;;;;10.37;100.00;94812.13;10386241;28;20044;-82
2021/11/08 02:03:27;;;;;;;29.80;14.02;;;;;;;10.43;100.00;94802.97;10385977;28;20168;-81
2021/11/08 02:08:28;;;;;;;31.52;14.32;;;;;;;10.47;100.00;94797.88;10385740;28;20053;-82
2021/11/08 02:13:28;;;;;;;36.15;17.92;;;;;;;10.37;100.00;94812.13;10402217;28;20882;-82
2021/11/08 02:18:30;;;;;;;30.15;20.90;;;;;;;10.41;100.00;94807.03;10398621;28;20029;-81
2021/11/08 02:23:30;;;;;;;31.70;15.45;;;;;;;10.45;100.00;94807.28;10385372;28;20115;-81
2021/11/08 02:28:31;;;;;;;31.23;17.55;;;;;;;10.47;100.00;94805.13;10385484;28;20207;-82
2021/11/08 02:33:33;;;;;;;39.10;23.52;;;;;;;10.37;100.00;94805.94;10402708;28;20025;-83
2021/11/08 02:38:38;;;;;;;43.67;36.00;;;;;;;10.36;100.00;94805.13;10402808;28;20029;-81
2021/11/08 02:43:39;;;;;;;75.05;69.00;;;;;;;10.37;100.00;94806.75;10385043;28;20083;-82
2021/11/08 02:48:44;;;;;;;83.90;77.57;;;;;;;10.27;100.00;94796.00;10385275;28;20029;-81
2021/11/08 02:53:47;;;;;;;44.60;40.05;;;;;;;10.29;100.00;94788.44;10384247;28;20033;-81
2021/11/08 02:58:48;;;;;;;44.80;31.95;;;;;;;10.23;100.00;94787.66;10384665;28;20049;-82
2021/11/08 03:04:13;;;;;;;32.22;25.50;;;;;;;10.14;100.00;94778.50;10385383;28;20093;-82
2021/11/08 03:09:29;;;;;;;43.17;39.00;;;;;;;9.97;100.00;94776.09;10412820;28;20404;-81
2021/11/08 03:14:32;;;;;;;38.40;17.05;;;;;;;9.95;100.00;94769.38;10402121;28;20200;-82
2021/11/08 03:19:36;;;;;;;62.05;56.25;;;;;;;9.92;100.00;94760.81;10382969;28;20522;-82
2021/11/08 03:24:58;;;;;;;85.07;78.40;;;;;;;9.90;100.00;94775.56;10399620;28;20025;-82
2021/11/08 03:29:59;;;;;;;146.63;136.50;;;;;;;9.93;100.00;94769.66;10399681;28;20029;-81
2021/11/08 03:35:04;;;;;;;652.88;610.78;;;;;;;9.91;100.00;94761.88;10381770;28;20036;-82
2021/11/08 03:40:07;;;;;;;43.08;19.20;;;;;;;9.86;100.00;94753.00;10399741;28;20022;-82
2021/11/08 03:45:09;;;;;;;98.22;89.72;;;;;;;9.82;100.00;94757.31;10381281;28;20053;-81
2021/11/08 03:50:11;;;;;;;164.40;152.93;;;;;;;9.74;100.00;94767.50;10381815;28;20029;-83
2021/11/08 03:55:13;;;;;;;172.25;161.38;;;;;;;9.68;100.00;94768.53;10382463;28;20026;-82
2021/11/08 04:00:16;;;;;;;210.80;197.65;;;;;;;9.44;100.00;94762.88;10408362;28;20041;-82
2021/11/08 04:05:18;;;;;;;37.13;17.33;;;;;;;9.24;100.00;94755.59;10365848;28;20424;-82
2021/11/08 04:10:23;;;;;;;61.03;54.70;;;;;;;9.03;100.00;94760.88;10359588;28;20554;-82
2021/11/08 04:15:30;;;;;;;93.30;85.55;;;;;;;8.88;100.00;94766.19;10367032;28;20694;-81
2021/11/08 04:20:31;;;;;;;166.30;155.05;;;;;;;8.97;100.00;94778.03;10367871;28;20511;-82
2021/11/08 04:25:31;;;;;;;198.35;186.38;;;;;;;8.96;100.00;94781.78;10361069;28;20037;-82
2021/11/08 04:30:33;;;;;;;208.98;196.35;;;;;;;8.99;100.00;94767.84;10361991;28;20084;-81
2021/11/08 04:51:11;;;;;;;369.90;336.42;;;;;;;8.96;100.00;94797.03;10364534;28;20026;-82
2021/11/08 05:32:50;;;;;;;50.65;20.27;;;;;;;9.43;100.00;94784.59;10399317;28;20017;-77
2021/11/08 05:37:51;;;;;;;45.10;21.85;;;;;;;9.63;100.00;94776.63;10381813;28;20483;-77
2021/11/08 05:42:51;;;;;;;61.13;25.83;;;;;;;9.56;100.00;94773.38;10407794;28;20025;-81
2021/11/08 05:47:52;;;;;;;50.58;22.60;;;;;;;9.81;100.00;94774.47;10398490;28;20029;-79
2021/11/08 05:52:53;;;;;;;47.28;21.90;;;;;;;10.04;100.00;94768.56;10396765;28;20041;-78
2021/11/08 05:58:47;;;;;;;53.15;21.42;;;;;;;10.06;100.00;94777.19;10397356;28;20018;-79
2021/11/08 06:50:58;;;;;;;54.35;24.35;;;;;;;11.23;100.00;94811.38;10398117;28;20022;-80
2021/11/08 06:56:01;;;;;;;52.90;24.55;;;;;;;11.19;100.00;94803.06;10396583;28;20021;-81
2021/11/08 07:01:01;;;;;;;48.58;22.63;;;;;;;11.43;100.00;94791.69;10394607;28;20028;-79
2021/11/08 07:06:02;;;;;;;63.47;25.40;;;;;;;11.69;100.00;94786.94;10394717;28;20635;-79
2021/11/08 07:11:02;;;;;;;63.53;25.48;;;;;;;12.48;100.00;94775.34;10376587;28;20025;-78
2021/11/08 07:16:03;;;;;;;60.25;26.05;;;;;;;12.60;100.00;94777.63;10394302;28;20029;-79
2021/11/08 07:21:03;;;;;;;59.67;23.98;;;;;;;13.23;100.00;94774.00;10378471;28;20092;-79
2021/11/08 07:26:04;;;;;;;53.95;25.00;;;;;;;14.05;100.00;94772.09;10393619;28;20033;-78
2021/11/08 07:31:04;;;;;;;52.40;22.17;;;;;;;14.01;100.00;94765.69;10394146;28;20031;-78
2021/11/08 07:36:06;;;;;;;51.45;20.98;;;;;;;14.04;100.00;94756.16;10394490;28;20877;-80
2021/11/08 07:41:09;;;;;;;50.85;23.38;;;;;;;14.83;100.00;94744.56;10377222;28;20041;-79
2021/11/08 07:46:10;;;;;;;52.70;22.48;;;;;;;15.54;100.00;94746.91;10393073;28;20476;-77
2021/11/08 07:51:13;;;;;;;51.03;21.65;;;;;;;15.10;100.00;94751.91;10394266;28;20015;-79
2021/11/08 07:56:32;;;;;;;55.00;21.70;;;;;;;15.40;100.00;94748.84;10394057;28;20134;-78
2021/11/08 08:01:32;;;;;;;49.78;25.92;;;;;;;16.42;100.00;94755.78;10394318;28;20747;-78
2021/11/08 08:06:33;;;;;;;48.55;26.63;;;;;;;18.28;100.00;94742.09;10394668;28;20049;-78
2021/11/08 08:11:34;;;;;;;45.13;18.23;;;;;;;19.94;100.00;94731.63;10393764;28;20095;-78
2021/11/08 08:16:34;;;;;;;42.38;17.48;;;;;;;20.48;98.92;94720.75;10376273;28;20022;-78
2021/11/08 08:21:35;;;;;;;40.17;18.15;;;;;;;18.77;100.00;94724.72;10393987;28;20034;-78
2021/11/08 08:26:39;;;;;;;39.28;18.25;;;;;;;17.90;100.00;94731.03;10393353;28;20496;-79
2021/11/08 08:31:43;;;;;;;48.13;20.45;;;;;;;18.00;100.00;94729.94;10393028;28;20078;-78
2021/11/08 08:36:44;;;;;;;42.95;19.73;;;;;;;18.37;100.00;94724.97;10376031;28;20029;-77
2021/11/08 08:41:45;;;;;;;43.58;19.92;;;;;;;18.84;100.00;94730.44;10394404;28;20025;-78
2021/11/08 08:46:47;;;;;;;50.53;23.45;;;;;;;19.49;100.00;94732.25;10400753;28;20025;-78
2021/11/08 08:51:47;;;;;;;60.95;28.90;;;;;;;19.97;96.30;94715.41;10382039;28;20033;-79
2021/11/08 08:56:50;;;;;;;69.40;38.80;;;;;;;20.66;89.96;94715.09;10381971;28;20900;-79
2021/11/08 09:01:53;;;;;;;60.55;25.85;;;;;;;20.77;85.23;94716.28;10399669;28;20288;-78
2021/11/08 09:06:54;;;;;;;290.05;266.30;;;;;;;21.29;82.77;94722.25;10399628;28;20077;-78
2021/11/08 09:11:55;;;;;;;229.77;211.43;;;;;;;21.88;72.42;94707.28;10400241;28;20029;-79
2021/11/08 09:16:56;;;;;;;719.53;658.08;;;;;;;21.68;77.13;94701.63;10401045;28;20091;-78
2021/11/08 09:21:57;;;;;;;417.50;382.90;;;;;;;21.87;70.23;94699.44;10397666;28;20030;-79
2021/11/08 09:26:58;;;;;;;728.78;665.63;;;;;;;22.85;66.59;94693.50;10398815;28;20037;-79
2021/11/08 09:31:59;;;;;;;46.08;20.08;;;;;;;22.29;67.66;94697.09;10380495;28;20029;-80
2021/11/08 09:36:59;;;;;;;54.38;29.17;;;;;;;22.81;65.83;94681.63;10397826;28;20482;-78
2021/11/08 09:42:03;;;;;;;63.70;27.52;;;;;;;23.58;60.13;94676.81;10397800;28;20079;-79
2021/11/08 09:47:04;;;;;;;38.72;17.48;;;;;;;25.29;52.11;94671.44;10398301;28;20144;-80
2021/11/08 09:52:05;;;;;;;32.70;15.55;;;;;;;26.47;47.03;94660.47;10386082;28;20135;-86
2021/11/08 09:57:06;;;;;;;36.47;16.30;;;;;;;26.97;44.65;94643.59;10403929;28;20025;-82
2021/11/08 10:02:13;;;;;;;34.17;15.90;;;;;;;25.29;48.67;94654.16;10403821;28;20068;-81
2021/11/08 10:07:16;;;;;;;43.53;16.02;;;;;;;25.14;50.01;94639.38;10403363;28;20045;-80
2021/11/08 10:12:16;;;;;;;32.60;14.75;;;;;;;25.65;47.61;94641.72;10386666;28;20037;-82
2021/11/08 10:17:17;;;;;;;41.30;27.42;;;;;;;25.44;48.88;94646.91;10384291;28;20025;-79
2021/11/08 10:22:19;;;;;;;107.75;99.97;;;;;;;26.77;44.22;94635.56;10399162;28;20037;-82
2021/11/08 10:27:19;;;;;;;140.27;128.38;;;;;;;25.86;48.19;94629.41;10397581;28;20041;-81
2021/11/08 10:32:24;;;;;;;136.68;125.43;;;;;;;25.37;50.94;94631.13;10397188;28;20454;-81
2021/11/08 10:37:34;;;;;;;152.95;140.88;;;;;;;25.10;51.74;94620.06;10383103;28;20092;-83
2021/11/08 10:42:35;;;;;;;57.17;25.15;;;;;;;24.25;54.60;94614.69;10406643;28;20130;-83
2021/11/08 10:47:38;;;;;;;55.83;47.10;;;;;;;24.05;56.36;94607.25;10405180;28;20104;-82
2021/11/08 10:52:38;;;;;;;54.88;34.35;;;;;;;25.31;54.38;94603.09;10401797;28;20017;-82
2021/11/08 10:57:41;;;;;;;669.15;610.55;;;;;;;26.87;48.19;94595.47;10400579;28;20013;-83
2021/11/08 11:02:42;;;;;;;319.80;293.05;;;;;;;28.40;43.58;94611.72;10404028;28;20585;-83
2021/11/08 11:07:43;;;;;;;324.10;297.17;;;;;;;28.85;42.83;94606.66;10397529;28;20099;-81
2021/11/08 11:12:46;;;;;;;542.67;495.50;;;;;;;30.67;38.68;94605.75;10401892;28;20126;-81
2021/11/08 11:17:55;;;;;;;636.75;578.53;;;;;;;32.26;35.36;94593.94;10409900;28;20026;-83
2021/11/08 11:23:05;;;;;;;872.47;792.42;;;;;;;32.30;34.62;94603.03;10400750;28;20099;-84
2021/11/08 11:28:11;;;;;;;534.08;485.80;;;;;;;32.31;35.93;94589.94;10382490;28;20507;-80
2021/11/08 11:33:21;;;;;;;910.77;827.13;;;;;;;30.85;36.83;94595.34;10395641;28;20059;-81
2021/11/08 11:38:25;;;;;;;78.50;56.13;;;;;;;29.23;39.58;94601.47;10395216;28;20026;-80
2021/11/08 11:43:35;;;;;;;41.30;18.05;;;;;;;27.22;44.39;94605.19;10399505;28;20021;-82
2021/11/08 11:48:36;;;;;;;46.10;18.80;;;;;;;25.90;48.72;94605.47;10381343;28;20069;-82
2021/11/08 11:53:37;;;;;;;50.35;22.45;;;;;;;24.67;54.50;94616.63;10381444;28;20582;-82
2021/11/08 11:58:40;;;;;;;49.03;22.80;;;;;;;23.95;59.17;94613.34;10398616;28;20049;-83
2021/11/08 12:04:06;;;;;;;51.00;24.15;;;;;;;23.70;61.72;94593.59;10381371;28;20619;-82
2021/11/08 12:09:09;;;;;;;53.78;24.45;;;;;;;23.51;62.52;94605.34;10398976;28;20049;-82
2021/11/08 12:14:16;;;;;;;65.43;24.80;;;;;;;23.26;67.16;94608.34;10398843;28;20029;-83
2021/11/08 12:19:22;;;;;;;49.77;22.47;;;;;;;23.01;65.67;94618.69;10402033;28;20024;-83
2021/11/08 12:24:28;;;;;;;49.55;21.80;;;;;;;22.85;65.19;94610.50;10406646;28;20378;-83
2021/11/08 12:29:29;;;;;;;48.00;21.52;;;;;;;22.54;71.58;94606.63;10388173;28;20126;-82
2021/11/08 12:34:38;;;;;;;46.10;21.40;;;;;;;22.56;67.29;94600.78;10388883;28;20108;-83
2021/11/08 12:39:40;;;;;;;39.10;17.20;;;;;;;22.47;67.32;94606.44;10406453;28;20105;-83
2021/11/08 12:44:46;;;;;;;39.03;13.52;;;;;;;22.42;60.34;94604.75;10406370;28;20115;-83
2021/11/08 12:49:55;;;;;;;37.97;12.05;;;;;;;22.34;55.86;94595.56;10406238;28;20025;-82
2021/11/08 12:55:07;;;;;;;27.35;10.18;;;;;;;22.48;52.71;94591.59;10405295;28;20030;-82
2021/11/08 13:00:18;;;;;;;27.40;8.18;;;;;;;22.63;52.29;94590.81;10410280;28;20021;-83
2021/11/08 13:05:27;;;;;;;21.13;7.25;;;;;;;22.72;49.52;94609.00;10405459;28;20142;-82
2021/11/08 13:10:32;;;;;;;21.27;8.02;;;;;;;22.69;50.49;94605.81;10408285;28;20037;-82
2021/11/08 13:15:33;;;;;;;20.60;7.10;;;;;;;22.61;53.44;94597.78;10405687;28;20491;-84
2021/11/08 13:20:42;;;;;;;106.68;93.88;;;;;;;22.38;52.09;94600.34;10405905;28;20041;-82
2021/11/08 13:25:50;;;;;;;17.73;7.75;;;;;;;21.75;51.76;94604.50;10386540;28;20044;-83
2021/11/08 13:30:53;;;;;;;16.92;7.40;;;;;;;21.40;55.23;94596.81;10402518;28;20048;-82
2021/11/08 13:35:56;;;;;;;32.72;8.98;;;;;;;21.04;56.28;94603.94;10385836;28;20040;-82
2021/11/08 13:41:18;;;;;;;27.58;7.90;;;;;;;20.77;61.73;94614.44;10385447;28;20032;-83
2021/11/08 13:46:21;;;;;;;25.55;7.47;;;;;;;20.60;61.44;94604.50;10403043;28;20029;-82
2021/11/08 13:51:49;;;;;;;16.48;7.05;;;;;;;20.48;63.86;94600.63;10384655;28;20126;-83
2021/11/08 13:57:18;;;;;;;532.00;484.17;;;;;;;20.44;69.34;94586.06;10403341;28;20028;-83
2021/11/08 14:02:20;;;;;;;;;;;;;;;20.35;74.29;94595.50;10397171;28;20045;-83
2021/11/08 14:07:24;;;;;;;29.17;7.85;;;;;;;20.16;73.29;94591.34;10402968;28;19916;-83
2021/11/08 14:12:31;;;;;;;21.27;5.70;;;;;;;20.08;72.57;94595.78;10384959;28;20033;-82
2021/11/08 14:17:34;;;;;;;15.10;5.80;;;;;;;20.06;68.52;94603.47;10384940;28;20067;-83
2021/11/08 14:22:43;;;;;;;18.88;5.68;;;;;;;20.21;67.93;94609.44;10385514;28;20064;-82
2021/11/08 14:27:44;;;;;;;17.70;5.50;;;;;;;20.27;64.59;94608.88;10384971;28;20119;-84
2021/11/08 14:32:47;;;;;;;17.73;5.85;;;;;;;20.23;63.08;94613.41;10384418;28;20073;-83
2021/11/08 14:38:10;;;;;;;16.52;3.67;;;;;;;19.99;60.81;94608.69;10385635;28;20478;-82
2021/11/08 14:43:18;;;;;;;13.60;4.90;;;;;;;19.44;61.99;94610.59;10383939;28;20091;-82
2021/11/08 14:48:23;;;;;;;;;;;;;;;19.40;65.66;94606.94;10403064;28;20025;-83
2021/11/08 14:53:24;;;;;;;17.83;5.05;;;;;;;19.35;64.53;94616.09;10384838;28;19920;-85
2021/11/08 14:58:24;;;;;;;17.15;5.25;;;;;;;19.36;63.58;94625.09;10384181;28;20039;-83
2021/11/08 15:03:26;;;;;;;13.05;5.00;;;;;;;19.28;66.62;94646.63;10402465;28;20511;-84
2021/11/08 15:08:26;;;;;;;25.45;8.75;;;;;;;19.03;83.48;94655.72;10388621;28;20035;-80
2021/11/08 15:13:27;;;;;;;23.30;8.52;;;;;;;18.78;88.33;94645.41;10401534;28;20108;-83
2021/11/08 15:18:29;;;;;;;24.75;9.15;;;;;;;18.52;91.30;94653.69;10383295;28;20105;-83
2021/11/08 15:23:45;;;;;;;24.73;8.93;;;;;;;18.09;94.50;94668.19;10406974;28;20455;-85
2021/11/08 15:28:54;;;;;;;25.10;7.97;;;;;;;17.78;96.33;94674.59;10394224;28;20021;-84
2021/11/08 15:46:14;;;;;;;20.98;9.02;;;;;;;16.97;100.00;94681.34;10406222;28;20037;-82
2021/11/08 15:51:21;;;;;;;25.48;7.57;;;;;;;16.71;100.00;94695.59;10407371;28;20036;-91
2021/11/08 15:56:40;;;;;;;22.65;8.35;;;;;;;16.76;100.00;94706.34;10412608;28;20025;-86
2021/11/08 16:02:08;;;;;;;19.35;8.27;;;;;;;16.73;100.00;94712.38;10394894;28;20022;-91
2021/11/08 16:18:58;;;;;;;20.50;9.02;;;;;;;16.52;100.00;94745.47;10387400;28;20022;-84
2021/11/08 16:24:06;;;;;;;23.83;9.18;;;;;;;16.39;100.00;94757.19;10412657;28;20049;-86
2021/11/08 16:29:20;;;;;;;28.13;8.40;;;;;;;16.33;100.00;94769.28;10393124;28;20251;-87
2021/11/08 16:34:22;;;;;;;26.02;8.93;;;;;;;16.33;100.00;94775.50;10395914;28;20028;-90
2021/11/08 16:39:35;;;;;;;;;;;;;;;;;;;;;
2021/11/08 16:45:19;;;;;;;25.02;8.50;;;;;;;16.13;100.00;94806.63;10418770;28;20025;-90
2021/11/08 16:50:27;;;;;;;25.98;10.38;;;;;;;16.01;100.00;94804.44;10398276;28;20466;-85
2021/11/08 17:01:42;;;;;;;17.67;8.45;;;;;;;15.62;100.00;94832.91;10412209;28;20458;-88
2021/11/08 17:06:50;;;;;;;19.25;8.73;;;;;;;15.44;100.00;94836.53;10389361;28;20041;-84
2021/11/08 17:17:15;;;;;;;22.90;9.85;;;;;;;14.51;100.00;94854.34;10421202;28;20108;-84
2021/11/08 17:22:20;;;;;;;23.92;10.32;;;;;;;14.62;100.00;94861.25;10387901;28;20056;-85
2021/11/08 17:27:21;;;;;;;21.95;11.25;;;;;;;13.91;100.00;94861.19;10414778;28;20025;-84
2021/11/08 17:32:34;;;;;;;28.25;11.70;;;;;;;13.74;100.00;94863.56;10404724;28;20080;-83
2021/11/08 17:37:36;;;;;;;32.70;11.18;;;;;;;13.74;100.00;94875.16;10426370;28;20547;-85
2021/11/08 17:42:45;;;;;;;22.63;10.25;;;;;;;13.27;100.00;94874.06;10427342;28;20028;-84
2021/11/08 17:47:56;;;;;;;26.20;10.38;;;;;;;13.19;100.00;94877.41;10427299;28;20151;-84
2021/11/08 17:53:31;;;;;;;22.83;11.02;;;;;;;12.99;100.00;94881.91;10457453;28;20483;-86
2021/11/08 17:58:36;;;;;;;26.42;11.45;;;;;;;12.71;100.00;94897.81;10447152;28;20098;-83
2021/11/08 18:03:56;;;;;;;;;;;;;;;;;;;;;
2021/11/08 18:09:33;;;;;;;26.85;11.30;;;;;;;12.33;100.00;94889.44;10452682;28;20021;-85
2021/11/08 18:14:59;;;;;;;30.33;12.45;;;;;;;12.28;100.00;94898.38;10428455;28;20021;-84
2021/11/08 18:20:17;;;;;;;28.67;12.40;;;;;;;12.18;100.00;94903.03;10443717;28;20021;-86
2021/11/08 18:37:24;;;;;;;22.80;10.97;;;;;;;12.25;100.00;94917.00;10435926;28;19966;-84
2021/11/08 18:42:54;;;;;;;;;;;;;;;;;;;;;
2021/11/08 18:48:29;;;;;;;21.58;10.15;;;;;;;12.31;100.00;94919.38;10444273;28;20025;-84
2021/11/08 18:54:08;;;;;;;21.15;9.88;;;;;;;12.30;100.00;94925.84;10446963;28;20035;-84
2021/11/08 18:59:40;;;;;;;25.23;10.00;;;;;;;12.35;100.00;94943.91;10306606;28;20034;-82
2021/11/08 19:05:24;;;;;;;24.13;10.32;;;;;;;12.40;100.00;94946.53;10428267;28;20329;-84
2021/11/08 19:10:51;;;;;;;;;;;;;;;;;;;;;
2021/11/08 19:21:53;;;;;;;23.02;10.73;;;;;;;12.19;100.00;94961.22;10580942;23;1184831;-71
2021/11/08 19:26:55;;;;;;;20.95;11.02;;;;;;;11.96;100.00;94967.00;10440778;28;20090;-73
2021/11/08 19:31:58;;;;;;;27.90;10.60;;;;;;;12.03;100.00;94968.56;10429570;28;20142;-73
2021/11/08 19:42:18;;;;;;;26.45;11.75;;;;;;;11.91;100.00;94966.97;10400337;28;20033;-69
2021/11/08 19:47:18;;;;;;;29.50;11.20;;;;;;;12.05;100.00;94972.59;10399649;28;20030;-70
2021/11/08 19:52:19;;;;;;;21.33;10.13;;;;;;;12.25;100.00;94970.88;10369844;28;20027;-70
2021/11/08 19:57:20;;;;;;;22.23;9.35;;;;;;;12.39;100.00;94971.09;10421037;28;20039;-71
2021/11/08 20:02:21;;;;;;;19.50;10.48;;;;;;;12.41;100.00;94979.72;10420813;28;20025;-70
2021/11/08 20:07:45;;;;;;;21.50;9.35;;;;;;;12.44;100.00;94973.75;10438487;28;20036;-72
2021/11/08 20:12:50;;;;;;;18.25;10.02;;;;;;;12.45;100.00;94975.38;10436683;28;20041;-70
2021/11/08 20:17:50;;;;;;;24.48;9.93;;;;;;;12.31;100.00;94975.19;10436138;28;20025;-70
2021/11/08 20:22:52;;;;;;;24.25;10.55;;;;;;;12.40;100.00;94978.88;10420270;28;20032;-70
2021/11/08 20:27:52;;;;;;;25.48;10.07;;;;;;;12.29;100.00;94980.03;10420277;28;20565;-70
2021/11/08 20:38:07;;;;;;;26.15;11.27;;;;;;;12.44;100.00;94979.94;10438922;28;20021;-72
2021/11/08 20:58:57;;;;;;;21.15;9.70;;;;;;;12.42;100.00;94987.50;10447750;28;20037;-70
2021/11/08 21:14:11;;;;;;;20.35;9.13;;;;;;;12.46;100.00;94987.75;10446786;28;20078;-73
2021/11/08 21:19:11;;;;;;;24.05;8.73;;;;;;;12.45;100.00;94984.25;10427815;28;20041;-72
2021/11/08 21:24:14;;;;;;;18.85;9.63;;;;;;;12.18;100.00;94981.16;10428467;28;20513;-72
2021/11/08 21:39:47;;;;;;;25.13;10.48;;;;;;;12.23;100.00;95016.97;10445463;28;20082;-72
2021/11/08 21:44:49;;;;;;;20.17;9.73;;;;;;;12.12;100.00;95018.91;10409084;28;20120;-75
2021/11/08 21:49:49;;;;;;;22.85;10.00;;;;;;;11.91;100.00;95033.50;10424649;28;20829;-71
2021/11/08 21:54:51;;;;;;;20.00;9.27;;;;;;;11.80;100.00;95030.84;10427351;28;20059;-74
2021/11/08 21:59:51;;;;;;;18.77;9.02;;;;;;;11.64;100.00;95042.72;10410480;28;20349;-71
2021/11/08 22:04:52;;;;;;;18.35;9.10;;;;;;;11.61;100.00;95048.66;10426758;28;20778;-71
2021/11/08 22:09:53;;;;;;;20.73;9.23;;;;;;;11.55;100.00;95047.03;10444108;28;20029;-71
2021/11/08 22:14:53;;;;;;;15.27;8.85;;;;;;;11.50;100.00;95049.72;10426277;28;20021;-71
2021/11/08 22:19:53;;;;;;;19.45;8.68;;;;;;;11.02;100.00;95058.88;10426416;28;20493;-75
2021/11/08 22:24:54;;;;;;;23.93;10.13;;;;;;;10.48;100.00;95062.00;10426417;28;20021;-71
2021/11/08 22:29:55;;;;;;;19.67;9.10;;;;;;;10.12;100.00;95067.19;10408683;28;20311;-71
2021/11/08 22:34:57;;;;;;;29.17;10.50;;;;;;;10.04;100.00;95069.31;10425609;28;20029;-72
2021/11/08 22:39:58;;;;;;;23.80;11.32;;;;;;;9.90;100.00;95076.25;10444640;28;20021;-72
2021/11/08 22:44:58;;;;;;;21.65;10.40;;;;;;;9.81;100.00;95085.84;10425653;28;20112;-71
2021/11/08 22:49:59;;;;;;;22.08;10.65;;;;;;;9.53;100.00;95094.00;10426182;28;20465;-75
2021/11/08 22:54:59;;;;;;;25.75;11.30;;;;;;;9.37;100.00;95098.41;10443752;28;20025;-75
2021/11/08 23:00:00;;;;;;;19.73;10.43;;;;;;;9.32;100.00;95098.41;10443275;28;20025;-74
2021/11/08 23:05:00;;;;;;;21.35;10.25;;;;;;;9.44;100.00;95106.25;10443667;28;20033;-72
2021/11/08 23:10:01;;;;;;;21.03;9.57;;;;;;;9.32;100.00;95093.03;10409149;28;20048;-75
2021/11/08 23:15:03;;;;;;;22.35;9.80;;;;;;;9.36;100.00;95087.94;10425712;28;20290;-75
2021/11/08 23:20:05;;;;;;;18.42;9.07;;;;;;;9.43;100.00;95085.84;10425479;28;20655;-72
2021/11/08 23:25:08;;;;;;;24.92;10.32;;;;;;;9.44;100.00;95090.16;10447671;28;20047;-75
2021/11/08 23:30:10;;;;;;;20.08;9.02;;;;;;;9.51;100.00;95090.75;10425482;28;20068;-75
2021/11/08 23:35:12;;;;;;;18.45;9.35;;;;;;;9.68;100.00;95079.84;10426370;28;20044;-78
2021/11/08 23:40:12;;;;;;;92.68;86.82;;;;;;;9.66;100.00;95073.16;10426217;28;20040;-75
2021/11/08 23:45:14;;;;;;;18.70;9.82;;;;;;;9.87;100.00;95055.28;10444159;28;20028;-74
2021/11/08 23:50:15;;;;;;;18.15;9.57;;;;;;;10.06;100.00;95056.47;10426868;28;20479;-75
2021/11/08 23:55:19;;;;;;;22.75;10.35;;;;;;;10.29;100.00;95045.53;10427038;28;20424;-74
